createdAt,value
2019-01-18T00:02:37.653Z,1.30
2019-01-18T00:05:18.803Z,1.40
2019-01-18T00:07:59.654Z,1.30
2019-01-18T00:10:40.454Z,1.30
2019-01-18T00:13:21.071Z,1.30
2019-01-18T00:16:01.663Z,1.20
2019-01-18T00:18:42.126Z,1.20
2019-01-18T00:21:22.629Z,1.20
2019-01-18T00:24:03.195Z,1.20
2019-01-18T00:26:43.690Z,1.20
2019-01-18T00:29:29.565Z,1.10
2019-01-18T00:32:06.830Z,1.20
2019-01-18T00:34:47.552Z,1.30
2019-01-18T00:37:28.176Z,1.50
2019-01-18T00:40:08.744Z,1.20
2019-01-18T00:42:49.603Z,1.20
2019-01-18T00:45:30.695Z,1.20
2019-01-18T00:48:11.055Z,1.10
2019-01-18T00:50:51.816Z,1.10
2019-01-18T00:53:32.290Z,1.10
2019-01-18T00:56:12.872Z,1.10
2019-01-18T00:58:53.766Z,1.10
2019-01-18T01:01:34.158Z,1.10
2019-01-18T01:04:14.865Z,1.10
2019-01-18T01:06:56.056Z,1.10
2019-01-18T01:09:37.079Z,1.10
2019-01-18T01:12:17.787Z,1.10
2019-01-18T01:14:58.367Z,1.10
2019-01-18T01:17:39.136Z,1.00
2019-01-18T01:20:19.403Z,1.00
2019-01-18T01:23:00.016Z,1.00
2019-01-18T01:25:40.771Z,1.00
2019-01-18T01:28:21.151Z,0.90
2019-01-18T01:31:01.471Z,0.80
2019-01-18T01:33:42.639Z,0.80
2019-01-18T01:36:23.132Z,0.80
2019-01-18T01:39:05.402Z,0.70
2019-01-18T01:41:46.293Z,0.70
2019-01-18T01:44:26.528Z,0.70
2019-01-18T01:47:06.802Z,0.60
2019-01-18T01:49:47.354Z,0.60
2019-01-18T01:52:27.871Z,0.60
2019-01-18T01:55:09.251Z,0.60
2019-01-18T01:57:50.144Z,0.50
2019-01-18T02:00:30.827Z,0.50
2019-01-18T02:03:11.170Z,0.50
2019-01-18T02:05:52.844Z,0.50
2019-01-18T02:11:17.003Z,0.50
2019-01-18T02:13:57.393Z,0.50
2019-01-18T02:16:38.181Z,0.40
2019-01-18T02:19:19.173Z,0.50
2019-01-18T02:21:59.810Z,0.40
2019-01-18T02:24:43.167Z,0.40
2019-01-18T02:27:24.140Z,0.40
2019-01-18T02:30:04.824Z,0.40
2019-01-18T02:32:45.838Z,0.40
2019-01-18T02:35:26.219Z,0.30
2019-01-18T02:38:06.925Z,0.40
2019-01-18T02:40:47.615Z,0.30
2019-01-18T02:43:28.334Z,0.30
2019-01-18T02:46:08.648Z,0.30
2019-01-18T02:48:49.195Z,0.30
2019-01-18T02:51:29.899Z,0.30
2019-01-18T02:54:10.475Z,0.30
2019-01-18T02:56:51.259Z,0.20
2019-01-18T02:59:31.596Z,0.20
2019-01-18T03:02:12.147Z,0.20
2019-01-18T03:04:52.840Z,0.20
2019-01-18T03:07:33.407Z,0.20
2019-01-18T03:10:13.980Z,0.20
2019-01-18T03:12:54.693Z,0.20
2019-01-18T03:15:35.485Z,0.10
2019-01-18T03:18:16.288Z,0.10
2019-01-18T03:20:56.612Z,0.10
2019-01-18T03:23:37.089Z,0.10
2019-01-18T03:26:17.792Z,0.10
2019-01-18T03:31:41.413Z,0.10
2019-01-18T03:34:21.922Z,0.10
2019-01-18T03:37:02.578Z,0.00
2019-01-18T03:42:25.976Z,0.00
2019-01-18T03:45:06.307Z,0.10
2019-01-18T03:47:46.902Z,0.00
2019-01-18T03:50:28.028Z,0.00
2019-01-18T03:53:08.795Z,0.00
2019-01-18T03:55:49.398Z,-0.10
2019-01-18T03:58:29.728Z,0.00
2019-01-18T04:01:10.476Z,0.00
2019-01-18T04:03:50.961Z,0.00
2019-01-18T04:06:31.697Z,-0.10
2019-01-18T04:09:12.976Z,-0.10
2019-01-18T04:11:54.095Z,-0.10
2019-01-18T04:14:34.596Z,-0.10
2019-01-18T04:17:15.857Z,-0.10
2019-01-18T04:19:56.933Z,-0.10
2019-01-18T04:22:37.599Z,-0.10
2019-01-18T04:25:20.597Z,-0.20
2019-01-18T04:28:01.700Z,-0.20
2019-01-18T04:30:42.379Z,-0.20
2019-01-18T04:33:22.915Z,-0.20
2019-01-18T04:36:01.976Z,-0.20
2019-01-18T04:38:49.865Z,-0.20
2019-01-18T04:41:37.755Z,-0.30
2019-01-18T04:47:32.707Z,-0.30
2019-01-18T04:53:49.122Z,-0.40
2019-01-18T04:56:37.040Z,-0.30
2019-01-18T04:59:24.919Z,-0.30
2019-01-18T05:02:12.812Z,-0.40
2019-01-18T05:05:00.714Z,-0.40
2019-01-18T05:07:48.675Z,-0.30
2019-01-18T05:10:36.593Z,-0.30
2019-01-18T05:13:24.505Z,-0.40
2019-01-18T05:19:21.064Z,-0.40
2019-01-18T05:22:08.942Z,-0.40
2019-01-18T05:24:56.831Z,-0.30
2019-01-18T05:27:44.756Z,-0.30
2019-01-18T05:30:32.646Z,-0.40
2019-01-18T05:33:20.541Z,-0.30
2019-01-18T05:36:08.427Z,-0.40
2019-01-18T05:38:48.788Z,-0.40
2019-01-18T05:41:29.544Z,-0.40
2019-01-18T05:44:10.519Z,-0.40
2019-01-18T05:46:51.096Z,-0.40
2019-01-18T05:49:31.888Z,-0.30
2019-01-18T05:52:12.908Z,-0.40
2019-01-18T05:57:35.803Z,-0.40
2019-01-18T06:00:18.495Z,-0.40
2019-01-18T06:02:59.447Z,-0.40
2019-01-18T06:05:40.955Z,-0.40
2019-01-18T06:08:21.290Z,-0.40
2019-01-18T06:11:02.219Z,-0.40
2019-01-18T06:13:42.988Z,-0.40
2019-01-18T06:16:23.628Z,-0.40
2019-01-18T06:19:04.411Z,-0.40
2019-01-18T06:21:45.283Z,-0.40
2019-01-18T06:24:25.938Z,-0.30
2019-01-18T06:27:06.907Z,-0.40
2019-01-18T06:29:47.800Z,-0.40
2019-01-18T06:32:28.788Z,-0.40
2019-01-18T06:35:09.219Z,-0.40
2019-01-18T06:37:49.943Z,-0.40
2019-01-18T06:40:30.867Z,-0.40
2019-01-18T06:43:11.656Z,-0.40
2019-01-18T06:45:52.448Z,-0.40
2019-01-18T06:48:33.620Z,-0.40
2019-01-18T06:51:13.983Z,-0.40
2019-01-18T06:53:54.599Z,-0.30
2019-01-18T06:56:35.324Z,-0.40
2019-01-18T06:59:16.067Z,-0.40
2019-01-18T07:01:56.951Z,-0.40
2019-01-18T07:04:41.442Z,-0.40
2019-01-18T07:07:20.512Z,-0.40
2019-01-18T07:10:01.218Z,-0.40
2019-01-18T07:12:41.696Z,-0.40
2019-01-18T07:15:22.371Z,-0.40
2019-01-18T07:18:03.000Z,-0.40
2019-01-18T07:20:43.880Z,-0.40
2019-01-18T07:23:24.553Z,-0.40
2019-01-18T07:26:05.049Z,-0.50
2019-01-18T07:28:45.716Z,-0.50
2019-01-18T07:31:26.487Z,-0.50
2019-01-18T07:34:07.316Z,-0.50
2019-01-18T07:36:47.872Z,-0.50
2019-01-18T07:39:28.535Z,-0.50
2019-01-18T07:42:09.352Z,-0.50
2019-01-18T07:44:50.013Z,-0.50
2019-01-18T07:47:30.664Z,-0.50
2019-01-18T07:50:11.384Z,-0.50
2019-01-18T07:52:52.320Z,-0.50
2019-01-18T07:55:33.108Z,-0.50
2019-01-18T07:58:13.936Z,-0.40
2019-01-18T08:00:54.657Z,-0.40
2019-01-18T08:03:35.398Z,-0.40
2019-01-18T08:06:15.948Z,-0.40
2019-01-18T08:08:56.835Z,-0.40
2019-01-18T08:11:37.379Z,-0.40
2019-01-18T08:14:18.332Z,-0.40
2019-01-18T08:19:41.516Z,-0.30
2019-01-18T08:22:22.231Z,-0.30
2019-01-18T08:25:02.921Z,-0.30
2019-01-18T08:27:43.888Z,-0.20
2019-01-18T08:30:24.768Z,-0.20
2019-01-18T08:33:05.847Z,-0.20
2019-01-18T08:35:46.301Z,-0.10
2019-01-18T08:38:27.196Z,-0.10
2019-01-18T08:41:07.949Z,0.00
2019-01-18T08:43:48.456Z,0.00
2019-01-18T08:46:29.264Z,0.00
2019-01-18T08:49:09.905Z,0.10
2019-01-18T08:51:50.712Z,0.10
2019-01-18T08:54:31.437Z,0.20
2019-01-18T08:57:12.140Z,0.30
2019-01-18T08:59:52.756Z,0.30
2019-01-18T09:02:33.456Z,0.30
2019-01-18T09:05:14.156Z,0.50
2019-01-18T09:10:37.535Z,0.70
2019-01-18T09:13:18.479Z,0.80
2019-01-18T09:15:59.737Z,1.00
2019-01-18T09:18:40.384Z,1.10
2019-01-18T09:21:21.357Z,1.30
2019-01-18T09:24:02.024Z,1.30
2019-01-18T09:26:42.734Z,1.20
2019-01-18T09:29:23.712Z,1.10
2019-01-18T09:32:04.406Z,2.60
2019-01-18T09:34:45.165Z,1.90
2019-01-18T09:37:25.832Z,1.60
2019-01-18T09:40:06.632Z,1.50
2019-01-18T09:42:47.328Z,1.30
2019-01-18T09:45:28.148Z,1.30
2019-01-18T09:48:08.876Z,1.40
2019-01-18T09:50:49.444Z,1.40
2019-01-18T09:53:30.337Z,1.40
2019-01-18T09:56:11.027Z,1.50
2019-01-18T09:58:51.659Z,1.60
2019-01-18T10:01:32.322Z,1.60
2019-01-18T10:04:13.326Z,1.70
2019-01-18T10:06:54.158Z,1.70
2019-01-18T10:09:34.939Z,1.70
2019-01-18T10:12:15.363Z,1.80
2019-01-18T10:14:56.013Z,1.90
2019-01-18T10:17:36.733Z,1.90
2019-01-18T10:20:17.527Z,1.90
2019-01-18T10:22:58.364Z,2.00
2019-01-18T10:25:39.093Z,2.00
2019-01-18T10:28:20.055Z,2.00
2019-01-18T10:31:00.852Z,2.10
2019-01-18T10:33:41.473Z,2.10
2019-01-18T10:36:22.135Z,2.20
2019-01-18T10:39:04.500Z,2.20
2019-01-18T10:41:44.932Z,2.20
2019-01-18T10:44:25.772Z,2.20
2019-01-18T10:47:06.246Z,2.40
2019-01-18T10:49:47.293Z,2.30
2019-01-18T10:52:27.916Z,2.30
2019-01-18T10:55:08.631Z,2.40
2019-01-18T10:57:49.450Z,2.50
2019-01-18T11:00:30.056Z,2.60
2019-01-18T11:03:11.084Z,2.60
2019-01-18T11:05:52.039Z,2.70
2019-01-18T11:08:33.215Z,3.00
2019-01-18T11:11:13.519Z,3.70
2019-01-18T11:13:54.107Z,4.20
2019-01-18T11:16:35.176Z,5.10
2019-01-18T11:19:15.748Z,6.10
2019-01-18T11:21:56.189Z,6.70
2019-01-18T11:24:36.568Z,7.40
2019-01-18T11:27:17.185Z,7.50
2019-01-18T11:29:57.651Z,8.00
2019-01-18T11:32:37.964Z,8.20
2019-01-18T11:35:18.578Z,9.10
2019-01-18T11:37:59.448Z,9.60
2019-01-18T11:40:39.853Z,9.50
2019-01-18T11:43:20.320Z,9.70
2019-01-18T11:46:00.736Z,10.00
2019-01-18T11:48:41.224Z,11.00
2019-01-18T11:51:22.185Z,11.30
2019-01-18T11:54:02.507Z,10.50
2019-01-18T11:56:43.612Z,11.10
2019-01-18T11:59:24.085Z,11.30
2019-01-18T12:02:04.611Z,10.50
2019-01-18T12:04:44.947Z,11.20
2019-01-18T12:10:09.420Z,12.00
2019-01-18T12:12:50.094Z,11.20
2019-01-18T12:15:30.492Z,12.50
2019-01-18T12:18:11.100Z,13.20
2019-01-18T12:20:51.451Z,12.20
2019-01-18T12:23:32.027Z,11.40
2019-01-18T12:26:12.661Z,12.50
2019-01-18T12:28:53.490Z,13.00
2019-01-18T12:31:34.112Z,13.00
2019-01-18T12:36:58.929Z,12.10
2019-01-18T12:39:40.020Z,12.40
2019-01-18T12:42:20.704Z,12.90
2019-01-18T12:45:01.410Z,12.70
2019-01-18T12:47:41.948Z,13.20
2019-01-18T12:50:22.643Z,11.30
2019-01-18T12:53:03.197Z,10.40
2019-01-18T12:55:43.667Z,9.20
2019-01-18T12:58:24.335Z,8.60
2019-01-18T13:01:04.886Z,8.40
2019-01-18T13:03:45.511Z,8.30
2019-01-18T13:06:26.106Z,8.00
2019-01-18T13:09:06.835Z,8.00
2019-01-18T13:11:47.516Z,8.10
2019-01-18T13:14:28.040Z,7.50
2019-01-18T13:17:08.791Z,7.10
2019-01-18T13:19:49.320Z,6.30
2019-01-18T13:22:30.168Z,6.40
2019-01-18T13:25:10.883Z,7.00
2019-01-18T13:27:51.692Z,6.80
2019-01-18T13:30:32.848Z,6.70
2019-01-18T13:33:13.636Z,6.40
2019-01-18T13:35:54.424Z,6.60
2019-01-18T13:38:34.983Z,7.80
2019-01-18T13:41:15.712Z,8.90
2019-01-18T13:43:56.195Z,8.30
2019-01-18T13:46:36.764Z,7.50
2019-01-18T13:49:18.128Z,6.70
2019-01-18T13:51:59.364Z,6.10
2019-01-18T13:54:40.113Z,6.00
2019-01-18T13:57:20.665Z,5.80
2019-01-18T14:00:01.268Z,5.60
2019-01-18T14:02:48.227Z,5.50
2019-01-18T14:05:24.486Z,5.40
2019-01-18T14:08:05.205Z,5.20
2019-01-18T14:10:45.606Z,5.00
2019-01-18T14:13:26.159Z,5.00
2019-01-18T14:16:06.693Z,5.10
2019-01-18T14:18:47.040Z,4.80
2019-01-18T14:21:27.522Z,5.00
2019-01-18T14:24:07.930Z,4.90
2019-01-18T14:26:48.873Z,4.90
2019-01-18T14:29:29.462Z,4.90
2019-01-18T14:32:10.189Z,5.00
2019-01-18T14:34:50.856Z,4.80
2019-01-18T14:37:31.563Z,4.70
2019-01-18T14:40:12.108Z,4.60
2019-01-18T14:42:52.757Z,4.50
2019-01-18T14:48:16.482Z,4.50
2019-01-18T14:50:56.984Z,4.40
2019-01-18T14:53:37.704Z,4.40
2019-01-18T14:56:18.331Z,4.20
2019-01-18T14:58:58.971Z,4.20
2019-01-18T15:01:39.621Z,4.20
2019-01-18T15:04:20.091Z,4.20
2019-01-18T15:07:00.874Z,4.20
2019-01-18T15:09:41.633Z,4.20
2019-01-18T15:12:22.217Z,4.10
2019-01-18T15:15:03.001Z,4.00
2019-01-18T15:17:43.505Z,4.00
2019-01-18T15:20:24.195Z,4.00
2019-01-18T15:23:05.099Z,3.90
2019-01-18T15:25:45.784Z,3.90
2019-01-18T15:28:26.370Z,3.80
2019-01-18T15:31:07.055Z,3.80
2019-01-18T15:33:47.723Z,3.70
2019-01-18T15:36:28.155Z,3.60
2019-01-18T15:39:11.094Z,3.60
2019-01-18T15:41:51.331Z,3.60
2019-01-18T15:44:31.823Z,3.50
2019-01-18T15:47:12.356Z,3.50
2019-01-18T15:49:41.190Z,3.50
2019-01-18T15:52:09.869Z,3.40
2019-01-18T15:54:38.531Z,3.40
2019-01-18T15:57:07.200Z,3.40
2019-01-18T15:59:35.935Z,3.40
2019-01-18T16:02:04.799Z,3.40
2019-01-18T16:04:33.485Z,3.40
2019-01-18T16:07:02.107Z,3.40
2019-01-18T16:09:30.823Z,3.40
2019-01-18T16:11:59.407Z,3.30
2019-01-18T16:14:28.038Z,3.30
2019-01-18T16:17:04.926Z,3.20
2019-01-18T16:19:33.583Z,3.20
2019-01-18T16:22:02.271Z,3.30
2019-01-18T16:24:31.027Z,3.20
2019-01-18T16:26:59.732Z,3.30
2019-01-18T16:29:28.527Z,3.20
2019-01-18T16:31:57.148Z,3.30
2019-01-18T16:34:26.112Z,3.30
2019-01-18T16:36:54.734Z,3.20
2019-01-18T16:39:23.651Z,3.20
2019-01-18T16:41:52.294Z,3.20
2019-01-18T16:44:20.916Z,3.20
2019-01-18T16:46:49.607Z,3.20
2019-01-18T16:49:18.288Z,3.20
2019-01-18T16:51:46.899Z,3.20
2019-01-18T16:54:15.557Z,3.10
2019-01-18T16:56:44.142Z,3.10
2019-01-18T16:59:12.852Z,3.10
2019-01-18T17:01:41.452Z,3.10
2019-01-18T17:04:10.084Z,3.10
2019-01-18T17:06:38.683Z,3.10
2019-01-18T17:09:09.022Z,3.10
2019-01-18T17:11:37.770Z,3.10
2019-01-18T17:14:06.443Z,3.10
2019-01-18T17:16:35.167Z,3.10
2019-01-18T17:19:03.821Z,3.00
2019-01-18T17:21:32.402Z,3.00
2019-01-18T17:24:01.052Z,3.00
2019-01-18T17:26:29.672Z,3.00
2019-01-18T17:28:58.329Z,3.00
2019-01-18T17:31:26.919Z,3.00
2019-01-18T17:33:55.575Z,3.00
2019-01-18T17:36:46.025Z,3.00
2019-01-18T17:39:48.614Z,2.90
2019-01-18T17:42:31.777Z,2.90
2019-01-18T17:45:46.460Z,2.80
2019-01-18T17:48:48.982Z,2.90
2019-01-18T17:51:57.591Z,2.80
2019-01-18T17:55:10.572Z,2.80
2019-01-18T17:58:05.227Z,2.80
2019-01-18T18:01:30.041Z,2.70
2019-01-18T18:04:24.577Z,2.80
2019-01-18T18:07:28.708Z,2.80
2019-01-18T18:10:16.990Z,2.90
2019-01-18T18:13:13.998Z,2.90
2019-01-18T18:16:05.295Z,2.80
2019-01-18T18:19:17.130Z,2.90
2019-01-18T18:22:23.490Z,2.90
2019-01-18T18:25:05.251Z,2.80
2019-01-18T18:28:08.428Z,2.90
2019-01-18T18:31:03.180Z,2.90
2019-01-18T18:34:15.659Z,2.80
2019-01-18T18:37:03.065Z,2.80
2019-01-18T18:39:59.509Z,2.80
2019-01-18T18:42:45.486Z,2.80
2019-01-18T18:45:45.833Z,2.80
2019-01-18T18:48:57.443Z,2.80
2019-01-18T18:52:04.425Z,2.70
2019-01-18T18:54:57.105Z,2.70
2019-01-18T18:58:08.351Z,2.60
2019-01-18T19:01:00.195Z,2.50
2019-01-18T19:04:04.689Z,2.50
2019-01-18T19:07:14.882Z,2.50
2019-01-18T19:10:15.397Z,2.50
2019-01-18T19:13:31.677Z,2.50
2019-01-18T19:16:35.515Z,2.50
2019-01-18T19:19:48.712Z,2.50
2019-01-18T19:22:45.675Z,2.50
2019-01-18T19:25:41.721Z,2.40
2019-01-18T19:28:31.408Z,2.40
2019-01-18T19:31:23.351Z,2.30
2019-01-18T19:34:30.042Z,2.30
2019-01-18T19:37:25.212Z,2.30
2019-01-18T19:40:12.908Z,2.20
2019-01-18T19:43:24.100Z,2.20
2019-01-18T19:46:08.859Z,2.20
2019-01-18T19:48:58.890Z,2.10
2019-01-18T19:51:55.107Z,2.10
2019-01-18T19:54:35.415Z,2.10
2019-01-18T19:57:29.248Z,2.10
2019-01-18T20:00:24.239Z,2.10
2019-01-18T20:03:43.246Z,2.10
2019-01-18T20:06:24.972Z,2.00
2019-01-18T20:09:13.166Z,2.00
2019-01-18T20:12:11.415Z,1.90
2019-01-18T20:15:04.991Z,1.90
2019-01-18T20:18:09.280Z,1.90
2019-01-18T20:21:12.166Z,1.80
2019-01-18T20:24:09.496Z,1.80
2019-01-18T20:27:09.884Z,1.80
2019-01-18T20:30:34.923Z,1.80
2019-01-18T20:33:24.794Z,1.70
2019-01-18T20:36:20.099Z,1.70
2019-01-18T20:39:10.724Z,1.60
2019-01-18T20:42:22.700Z,2.40
2019-01-18T20:45:10.366Z,3.00
2019-01-18T20:48:02.228Z,2.40
2019-01-18T20:51:00.535Z,2.20
2019-01-18T20:53:54.797Z,2.00
2019-01-18T20:56:52.658Z,2.00
2019-01-18T21:00:05.241Z,1.90
2019-01-18T21:03:10.368Z,1.80
2019-01-18T21:05:48.443Z,1.70
2019-01-18T21:08:30.171Z,1.70
2019-01-18T21:11:10.800Z,1.80
2019-01-18T21:14:10.231Z,1.70
2019-01-18T21:17:06.535Z,1.60
2019-01-18T21:20:15.623Z,1.60
2019-01-18T21:23:28.689Z,1.60
2019-01-18T21:26:47.615Z,1.60
2019-01-18T21:29:47.881Z,1.60
2019-01-18T21:32:48.214Z,1.70
2019-01-18T21:35:26.299Z,1.80
2019-01-18T21:38:47.075Z,1.90
2019-01-18T21:42:05.210Z,1.90
2019-01-18T21:45:08.848Z,1.90
2019-01-18T21:47:58.168Z,1.90
2019-01-18T21:50:59.976Z,1.90
2019-01-18T21:53:40.658Z,1.90
2019-01-18T21:56:29.322Z,1.90
2019-01-18T21:59:27.543Z,1.80
2019-01-18T22:02:40.353Z,1.80
2019-01-18T22:05:29.823Z,1.80
2019-01-18T22:08:36.873Z,1.70
2019-01-18T22:11:16.034Z,1.60
2019-01-18T22:14:06.990Z,1.60
2019-01-18T22:17:14.395Z,1.60
2019-01-18T22:20:12.631Z,1.80
2019-01-18T22:22:54.873Z,1.70
2019-01-18T22:25:45.368Z,1.60
2019-01-18T22:28:45.219Z,1.50
2019-01-18T22:32:14.499Z,1.40
2019-01-18T22:35:04.517Z,1.30
2019-01-18T22:37:49.772Z,1.30
2019-01-18T22:40:49.956Z,1.20
2019-01-18T22:43:36.820Z,1.20
2019-01-18T22:46:38.209Z,1.10
2019-01-18T22:49:31.985Z,1.10
2019-01-18T22:52:26.701Z,1.00
2019-01-18T22:55:38.745Z,1.00
2019-01-18T22:58:25.447Z,1.00
2019-01-18T23:01:32.796Z,0.90
2019-01-18T23:04:33.097Z,0.90
2019-01-18T23:07:44.058Z,0.80
2019-01-18T23:11:06.118Z,0.80
2019-01-18T23:14:24.971Z,0.80
2019-01-18T23:17:08.951Z,0.80
2019-01-18T23:20:02.366Z,0.80
2019-01-18T23:22:50.723Z,0.80
2019-01-18T23:26:10.135Z,0.80
2019-01-18T23:29:18.145Z,0.90
2019-01-18T23:32:19.279Z,0.90
2019-01-18T23:35:11.051Z,0.90
2019-01-18T23:38:12.299Z,0.90
2019-01-18T23:41:13.115Z,0.80
2019-01-18T23:43:58.767Z,0.70
2019-01-18T23:46:54.675Z,0.70
2019-01-18T23:50:10.642Z,0.80
2019-01-18T23:53:12.707Z,0.90
2019-01-18T23:56:03.825Z,0.80
2019-01-18T23:58:58.581Z,0.80
